West Palm Beach, FL (33406)

4:52 AM EDT on April 23, 2017 (GMT -0400)
MFHCHS | | Change Station

Elev 16 ft 26.65 °N, 80.07 °W | Updated 15 minutes ago

Light Rain
Light Rain
76.0 °F
Feels Like 77 °F
N
11.0
Wind Variable Wind from SSE
Gusts 16.0 mph

Today
High -- | Low -- °F
--% Chance of Precip.
Yesterday
High -- | Low -- °F
Precip. -- in
Pressure 29.84 in
Visibility 10.0 miles
Clouds Few 2000 ft
Scattered Clouds 4700 ft
Mostly Cloudy 11000 ft
Heat Index 77 °F
Dew Point 70 °F
Humidity 81%
Rainfall in
Snow Depth Not available.
6:48 AM 7:48 PM
Waning Crescent, 13% visible
METAR KPBI 230753Z 14010KT 10SM -RA FEW020 SCT047 BKN110 23/21 A2984 RMK AO2 RAE27B48 SLP105 P0003 T02280211
Pressure 29.84 in
Visibility 10.0 miles
Clouds Few 2000 ft
Scattered Clouds 4700 ft
Mostly Cloudy 11000 ft
Heat Index 77 °F
Dew Point 70 °F
Humidity 81%
Rainfall in
Snow Depth Not available.
6:48 AM 7:48 PM
Waning Crescent, 13% visible
METAR KPBI 230753Z 14010KT 10SM -RA FEW020 SCT047 BKN110 23/21 A2984 RMK AO2 RAE27B48 SLP105 P0003 T02280211

Get Severe Weather Alerts

Thanks for signing up!

Be on the lookout for a verification email in your inbox.

You'll start receiving the daily forecast at 8 AM.

×

10-Day Weather Forecast

Almanac

Astronomy

Apr. 23, 2017 Rise Set
Actual Time
Civil Twilight
Nautical Twilight
Astronomical Twilight
Moon
Length of Visible Light
Length of Day
Tomorrow will be .
, % of the Moon is Illuminated

Today's Extremes

State Highs State Lows

Community

WunderPhotos

WunderBlog® & News

Nearby

Air Quality

  Air Quality AQ Index Pollutant
Not available.

Snow Depth

Station Depth Elevation

Earthquake Activity

City Distance Mag. Time & Date
Minimum magnitude displayed is 2.5.

Coastal Water Temperatures

Place Temperature

Stations

Nearby Weather Stations

Station Location Temp. Windchill Dew Point Humidity Wind Precip. Elev Updated Type
                   

Watches & Warnings

There are currently no watches in effect.